Time;durP1;ratioP1;P1;durP2;ratioP2;P2;SDS_P1;SDS_P2;PMS_P1;PMS_P2;Temp;Humidity;BMP_temperature;BMP_pressure;BME280_temperature;BME280_humidity;BME280_pressure;Samples;Min_cycle;Max_cycle;Signal;HPM_P1;HPM_P2
2021/06/22 00:00:24;;;;;;;7.63;5.80;;;;;;;21.13;85.20;100080.09;3580762;40;20119;-46
2021/06/22 00:02:52;;;;;;;9.75;6.32;;;;;;;21.12;86.30;100083.56;3580079;40;20048;-49
2021/06/22 00:05:21;;;;;;;7.30;6.60;;;;;;;20.83;88.23;100080.00;3581264;40;20151;-48
2021/06/22 00:07:51;;;;;;;8.65;6.70;;;;;;;21.02;87.77;100082.97;3580761;40;20060;-48
2021/06/22 00:10:21;;;;;;;9.73;7.22;;;;;;;20.78;89.50;100089.69;3581096;40;20120;-47
2021/06/22 00:12:49;;;;;;;9.43;7.53;;;;;;;20.99;88.67;100083.06;3580413;40;20067;-48
2021/06/22 00:15:19;;;;;;;10.30;7.90;;;;;;;20.95;89.35;100089.25;3581206;40;20123;-48
2021/06/22 00:17:48;;;;;;;9.15;7.90;;;;;;;20.97;89.34;100100.47;3580796;40;20060;-53
2021/06/22 00:20:16;;;;;;;9.60;8.00;;;;;;;20.92;89.98;100094.53;3579903;40;20059;-51
2021/06/22 00:22:44;;;;;;;10.80;7.95;;;;;;;20.87;89.87;100104.19;3580949;40;20110;-51
2021/06/22 00:25:13;;;;;;;11.75;7.93;;;;;;;20.83;90.18;100097.38;3580268;40;20053;-49
2021/06/22 00:27:40;;;;;;;8.77;7.88;;;;;;;20.88;90.42;100097.25;3580977;40;20109;-46
2021/06/22 00:30:09;;;;;;;11.13;8.18;;;;;;;20.75;90.80;100105.38;3579879;40;20056;-45
2021/06/22 00:32:37;;;;;;;10.80;7.20;;;;;;;20.73;91.09;100106.31;3580919;40;20056;-45
2021/06/22 00:35:05;;;;;;;10.02;8.40;;;;;;;20.63;91.72;100116.09;3580161;40;20100;-47
2021/06/22 00:37:32;;;;;;;12.38;8.05;;;;;;;20.74;91.27;100119.28;3581546;40;20060;-48
2021/06/22 00:39:59;;;;;;;12.52;8.23;;;;;;;20.53;91.99;100127.63;3580657;40;20164;-46
2021/06/22 00:42:26;;;;;;;11.68;8.10;;;;;;;20.53;92.42;100128.47;3581034;40;20055;-46
2021/06/22 00:44:59;;;;;;;11.63;8.38;;;;;;;20.48;92.62;100129.50;3579972;40;20052;-48
2021/06/22 00:47:28;;;;;;;11.45;9.30;;;;;;;20.40;93.62;100137.44;3575529;40;20092;-46
2021/06/22 00:49:56;;;;;;;12.70;10.00;;;;;;;20.57;93.01;100144.88;3580077;40;20048;-46
2021/06/22 00:52:25;;;;;;;10.65;9.23;;;;;;;20.41;93.48;100148.69;3575660;40;20084;-45
2021/06/22 00:54:57;;;;;;;15.27;9.88;;;;;;;20.51;93.51;100151.06;3580642;40;20058;-49
2021/06/22 00:57:25;;;;;;;13.68;9.23;;;;;;;20.53;93.00;100151.88;3575413;40;20429;-47
2021/06/22 00:59:52;;;;;;;14.50;9.38;;;;;;;20.21;95.49;100144.81;3580996;40;20158;-47
2021/06/22 01:02:19;;;;;;;13.18;10.38;;;;;;;20.54;93.63;100147.53;3584179;40;20073;-48
2021/06/22 01:04:46;;;;;;;10.13;9.13;;;;;;;20.55;93.94;100152.69;3584879;40;20127;-49
2021/06/22 01:07:15;;;;;;;11.65;9.85;;;;;;;20.37;94.99;100142.69;3579962;40;20423;-47
2021/06/22 01:09:42;;;;;;;12.63;9.52;;;;;;;20.50;94.38;100132.91;3580913;40;20069;-46
2021/06/22 01:12:10;;;;;;;11.73;10.65;;;;;;;20.52;94.20;100151.91;3579749;40;20049;-48
2021/06/22 01:14:44;;;;;;;11.48;10.10;;;;;;;20.45;95.06;100158.97;3581008;40;20060;-48
2021/06/22 01:17:11;;;;;;;10.93;9.70;;;;;;;20.28;95.71;100166.31;3579681;40;21553;-47
2021/06/22 01:19:38;;;;;;;14.57;10.75;;;;;;;20.45;95.25;100168.53;3580417;40;20044;-45
2021/06/22 01:22:06;;;;;;;12.70;11.38;;;;;;;20.43;95.18;100163.38;3579943;40;20298;-45
2021/06/22 01:24:34;;;;;;;12.60;10.50;;;;;;;20.17;96.57;100140.56;3581051;40;20123;-47
2021/06/22 01:27:01;;;;;;;13.02;10.85;;;;;;;20.29;96.21;100147.22;3579911;40;20368;-46
2021/06/22 01:29:29;;;;;;;14.38;10.23;;;;;;;20.42;95.65;100151.25;3581162;40;20343;-45
2021/06/22 01:31:58;;;;;;;13.77;10.70;;;;;;;20.32;95.88;100149.75;3579280;40;20449;-46
2021/06/22 01:34:28;;;;;;;13.68;10.70;;;;;;;20.29;95.69;100153.28;3574908;40;20052;-46
2021/06/22 01:36:57;;;;;;;16.52;10.32;;;;;;;20.31;95.74;100145.44;3579228;40;20450;-46
2021/06/22 01:39:24;;;;;;;13.88;11.20;;;;;;;20.04;96.92;100141.72;3574903;40;20087;-47
2021/06/22 01:41:51;;;;;;;11.80;10.38;;;;;;;20.26;96.08;100136.91;3580078;40;21592;-49
2021/06/22 01:44:18;;;;;;;11.60;10.18;;;;;;;20.21;96.38;100136.16;3580373;40;20408;-46
2021/06/22 01:46:46;;;;;;;16.10;11.07;;;;;;;20.12;97.36;100136.34;3580298;40;20460;-45
2021/06/22 01:49:13;;;;;;;12.13;10.82;;;;;;;20.09;97.50;100143.31;3579535;40;20064;-45
2021/06/22 01:51:43;;;;;;;14.25;12.02;;;;;;;20.18;97.44;100160.47;3580136;40;20089;-48
2021/06/22 01:54:10;;;;;;;14.48;12.27;;;;;;;20.31;96.49;100164.50;3579448;40;20104;-46
2021/06/22 01:56:37;;;;;;;12.75;11.02;;;;;;;20.21;97.20;100160.41;3580684;40;20408;-46
2021/06/22 01:59:04;;;;;;;12.52;11.32;;;;;;;20.24;97.16;100164.66;3579208;40;20532;-45
2021/06/22 02:01:32;;;;;;;12.75;11.48;;;;;;;20.25;97.10;100175.03;3581043;40;20056;-48
2021/06/22 02:04:01;;;;;;;12.63;11.32;;;;;;;20.16;97.85;100185.66;3579407;40;20133;-47
2021/06/22 02:06:28;;;;;;;15.45;11.75;;;;;;;20.01;98.83;100189.44;3581695;40;20406;-46
2021/06/22 02:08:55;;;;;;;14.57;12.95;;;;;;;19.92;99.32;100197.44;3583112;40;20060;-48
2021/06/22 02:11:22;;;;;;;15.02;12.35;;;;;;;19.95;98.87;100206.88;3578736;40;20116;-47
2021/06/22 02:13:49;;;;;;;13.88;12.02;;;;;;;20.01;99.44;100205.03;3583128;40;20072;-47
2021/06/22 02:16:17;;;;;;;13.77;12.07;;;;;;;20.05;98.70;100204.06;3584124;40;20053;-47
2021/06/22 02:18:44;;;;;;;16.23;12.38;;;;;;;20.02;98.76;100200.69;3583000;40;20060;-47
2021/06/22 02:21:12;;;;;;;14.07;12.25;;;;;;;19.93;99.98;100211.28;3581693;40;20414;-46
2021/06/22 02:23:40;;;;;;;16.00;11.98;;;;;;;19.96;99.65;100212.03;3582773;40;20116;-47
2021/06/22 02:26:07;;;;;;;16.63;13.98;;;;;;;19.86;99.44;100207.06;3582086;40;20452;-46
2021/06/22 02:28:34;;;;;;;16.58;14.18;;;;;;;19.79;100.00;100215.00;3582360;40;20064;-46
2021/06/22 02:31:02;;;;;;;18.83;12.93;;;;;;;19.88;100.00;100219.16;3581560;40;20063;-47
2021/06/22 02:33:29;;;;;;;19.35;13.75;;;;;;;20.00;98.90;100234.50;3582763;40;20393;-46
2021/06/22 02:35:56;;;;;;;15.35;13.38;;;;;;;20.01;98.72;100241.44;3580860;40;20048;-47
2021/06/22 02:38:23;;;;;;;15.75;13.23;;;;;;;20.03;98.82;100244.84;3576206;40;20084;-47
2021/06/22 02:40:51;;;;;;;17.77;13.05;;;;;;;20.13;97.77;100245.50;3581692;40;20438;-46
2021/06/22 02:43:18;;;;;;;16.58;12.88;;;;;;;20.12;98.21;100253.34;3581731;40;20406;-45
2021/06/22 02:45:45;;;;;;;15.90;12.82;;;;;;;20.11;97.98;100260.28;3581576;40;20088;-47
2021/06/22 02:48:12;;;;;;;14.38;12.13;;;;;;;19.98;98.83;100259.66;3581218;40;20123;-48
2021/06/22 02:50:40;;;;;;;15.43;12.27;;;;;;;19.93;98.86;100273.66;3582161;40;20093;-47
2021/06/22 02:53:09;;;;;;;16.05;12.05;;;;;;;20.15;97.79;100271.47;3637546;22;20080;-54
2021/06/22 02:55:38;;;;;;;16.08;12.40;;;;;;;20.05;97.33;100266.44;3577531;40;20068;-57
2021/06/22 02:58:05;;;;;;;20.33;12.20;;;;;;;20.08;97.08;100266.38;3578751;40;20083;-57
2021/06/22 03:00:33;;;;;;;13.23;11.40;;;;;;;20.04;97.14;100263.88;3576590;40;20444;-57
2021/06/22 03:03:00;;;;;;;12.85;11.45;;;;;;;20.06;96.34;100256.94;3579336;40;20357;-53
2021/06/22 03:05:28;;;;;;;14.00;10.80;;;;;;;20.06;96.29;100255.19;3577905;40;20041;-55
2021/06/22 03:07:56;;;;;;;12.10;10.35;;;;;;;20.02;97.10;100244.88;3578940;40;20090;-55
2021/06/22 03:10:24;;;;;;;12.07;10.82;;;;;;;20.02;97.37;100244.88;3577618;40;20108;-55
2021/06/22 03:12:52;;;;;;;12.35;10.60;;;;;;;20.10;95.89;100253.34;3583061;39;20088;-52
2021/06/22 03:15:20;;;;;;;15.48;11.48;;;;;;;20.20;94.56;100252.28;3581501;39;20089;-53
2021/06/22 03:17:49;;;;;;;12.57;10.98;;;;;;;20.14;94.51;100256.75;3580725;40;20064;-55
2021/06/22 03:20:18;;;;;;;14.13;9.90;;;;;;;20.49;93.82;100258.66;3578555;39;20056;-54
2021/06/22 03:22:45;;;;;;;13.10;10.27;;;;;;;20.52;93.14;100263.75;3579381;39;20072;-57
2021/06/22 03:25:13;;;;;;;12.10;10.82;;;;;;;20.51;93.17;100268.09;3578029;40;20089;-53
2021/06/22 03:27:40;;;;;;;14.95;11.77;;;;;;;20.55;92.68;100274.09;3579246;40;20077;-56
2021/06/22 03:30:10;;;;;;;11.60;9.77;;;;;;;20.54;92.42;100280.22;3581330;39;20059;-54
2021/06/22 03:32:37;;;;;;;14.48;11.25;;;;;;;20.45;92.01;100285.56;3578429;39;20425;-57
2021/06/22 03:35:10;;;;;;;12.68;10.80;;;;;;;20.67;90.70;100292.06;3578894;40;20044;-56
2021/06/22 03:37:37;;;;;;;14.85;11.20;;;;;;;20.65;90.96;100291.22;3575997;40;20128;-57
2021/06/22 03:40:06;;;;;;;10.98;9.35;;;;;;;20.52;91.84;100277.66;3577538;40;20054;-55
2021/06/22 03:42:34;;;;;;;11.32;9.75;;;;;;;20.79;89.91;100273.53;3576000;40;20429;-55
2021/06/22 03:45:06;;;;;;;10.38;9.00;;;;;;;20.73;89.41;100275.44;3577422;40;20333;-53
2021/06/22 03:47:34;;;;;;;9.73;8.73;;;;;;;20.86;88.50;100271.69;3577973;40;20032;-55
2021/06/22 03:50:01;;;;;;;9.60;8.57;;;;;;;20.78;88.13;100277.03;3578197;40;20087;-56
2021/06/22 03:52:28;;;;;;;9.13;8.23;;;;;;;20.78;88.35;100284.00;3576606;40;20073;-56
2021/06/22 03:54:55;;;;;;;11.30;8.85;;;;;;;20.85;87.36;100286.44;3577943;40;20443;-55
2021/06/22 03:57:22;;;;;;;9.20;8.30;;;;;;;21.02;85.97;100288.63;3576790;40;20131;-57
2021/06/22 03:59:50;;;;;;;10.95;8.35;;;;;;;20.93;86.44;100295.81;3577872;40;20109;-57
2021/06/22 04:02:19;;;;;;;10.73;8.52;;;;;;;21.05;85.18;100296.38;3577191;40;20104;-60
2021/06/22 04:04:46;;;;;;;10.85;8.45;;;;;;;20.84;86.42;100297.75;3577590;40;20068;-58
2021/06/22 04:07:13;;;;;;;11.38;7.88;;;;;;;20.82;86.44;100307.31;3576884;40;20083;-55
2021/06/22 04:09:40;;;;;;;13.02;8.60;;;;;;;20.71;86.68;100301.50;3576742;40;20740;-57
2021/06/22 04:12:08;;;;;;;10.52;8.65;;;;;;;20.77;86.34;100308.31;3577194;40;20326;-58
2021/06/22 04:14:35;;;;;;;9.77;8.35;;;;;;;20.75;86.36;100307.47;3577056;40;20104;-57
2021/06/22 04:17:02;;;;;;;9.15;8.15;;;;;;;20.91;86.29;100308.88;3578500;40;20055;-58
2021/06/22 04:19:29;;;;;;;8.20;7.43;;;;;;;21.06;85.44;100312.84;3576978;40;20480;-52
2021/06/22 04:21:56;;;;;;;11.57;8.45;;;;;;;21.01;85.30;100310.34;3578291;40;20061;-53
2021/06/22 04:24:23;;;;;;;9.60;8.10;;;;;;;21.22;85.04;100309.00;3576801;40;20346;-59
2021/06/22 04:26:50;;;;;;;9.05;7.43;;;;;;;21.27;84.84;100314.09;3577590;40;20053;-57
2021/06/22 04:29:17;;;;;;;9.07;7.50;;;;;;;21.20;85.38;100315.97;3576991;40;20116;-55
2021/06/22 04:31:44;;;;;;;9.13;7.90;;;;;;;21.37;83.92;100314.75;3576743;40;20330;-58
2021/06/22 04:34:11;;;;;;;9.95;8.77;;;;;;;21.40;83.54;100320.75;3581402;39;20149;-56
2021/06/22 04:36:38;;;;;;;10.80;8.48;;;;;;;21.15;83.79;100323.06;3580334;39;20118;-53
2021/06/22 04:39:05;;;;;;;12.10;8.00;;;;;;;21.30;84.22;100324.44;3581051;39;20092;-54
2021/06/22 04:41:32;;;;;;;11.48;8.60;;;;;;;21.50;82.37;100335.25;3576719;40;20069;-51
2021/06/22 04:43:59;;;;;;;8.98;7.07;;;;;;;21.72;81.73;100335.53;3578163;40;20088;-52
2021/06/22 04:46:27;;;;;;;13.48;7.93;;;;;;;21.74;82.36;100341.59;3576715;40;20061;-53
2021/06/22 04:48:54;;;;;;;11.88;7.50;;;;;;;21.91;80.35;100351.59;3577831;40;20065;-58
2021/06/22 04:51:21;;;;;;;9.27;7.63;;;;;;;21.86;80.77;100369.06;3576133;40;20053;-57
2021/06/22 04:53:48;;;;;;;11.95;8.40;;;;;;;21.78;82.31;100369.28;3576439;40;20056;-56
2021/06/22 04:56:15;;;;;;;10.63;8.50;;;;;;;21.53;83.51;100368.19;3579054;39;20056;-51
2021/06/22 04:58:43;;;;;;;12.63;8.98;;;;;;;21.37;84.52;100362.50;3578083;39;20059;-55
2021/06/22 05:01:10;;;;;;;11.68;9.23;;;;;;;21.48;83.97;100365.69;3577763;39;20056;-54
2021/06/22 05:03:37;;;;;;;15.60;10.27;;;;;;;21.15;85.24;100366.47;3576668;40;20307;-53
2021/06/22 05:06:04;;;;;;;17.30;11.32;;;;;;;21.18;84.97;100364.66;3578145;40;20518;-53
2021/06/22 05:08:31;;;;;;;16.13;10.85;;;;;;;20.83;85.96;100370.63;3576733;40;20051;-50
2021/06/22 05:10:58;;;;;;;21.45;12.07;;;;;;;20.88;86.27;100371.38;3577993;40;20108;-54
2021/06/22 05:13:26;;;;;;;15.07;10.20;;;;;;;20.91;86.87;100373.09;3576654;40;20434;-55
2021/06/22 05:15:53;;;;;;;16.58;12.27;;;;;;;20.81;86.22;100377.63;3577706;40;20065;-54
2021/06/22 05:18:20;;;;;;;23.02;13.40;;;;;;;20.62;87.43;100373.72;3576483;40;20045;-52
2021/06/22 05:20:47;;;;;;;22.23;15.00;;;;;;;20.47;88.56;100380.91;3577314;40;20503;-54
2021/06/22 05:23:16;;;;;;;38.08;18.48;;;;;;;20.35;89.34;100383.75;3579662;39;20081;-56
2021/06/22 05:25:43;;;;;;;29.08;17.65;;;;;;;20.19;90.47;100380.56;3576899;40;20088;-56
2021/06/22 05:28:11;;;;;;;34.03;19.50;;;;;;;19.93;91.15;100394.06;3577019;40;20081;-56
2021/06/22 05:30:39;;;;;;;30.33;19.33;;;;;;;19.87;91.93;100383.75;3576670;40;20063;-50
2021/06/22 05:33:06;;;;;;;35.22;19.10;;;;;;;19.87;91.91;100383.75;3577537;40;20058;-51
2021/06/22 05:35:34;;;;;;;32.42;18.77;;;;;;;20.07;90.77;100381.66;3576385;40;20088;-54
2021/06/22 05:38:01;;;;;;;33.53;20.33;;;;;;;19.99;91.48;100388.72;3577699;40;20060;-54
2021/06/22 05:40:28;;;;;;;30.40;18.77;;;;;;;19.98;90.50;100394.81;3576404;40;20053;-50
2021/06/22 05:42:55;;;;;;;25.45;18.73;;;;;;;19.58;91.01;100392.84;3577592;40;20069;-56
2021/06/22 05:45:23;;;;;;;37.13;22.08;;;;;;;19.60;91.41;100403.28;3576319;40;20192;-56
2021/06/22 05:47:50;;;;;;;29.92;21.58;;;;;;;19.53;90.93;100399.88;3577368;40;20080;-54
2021/06/22 05:50:18;;;;;;;36.47;22.42;;;;;;;19.41;92.07;100412.19;3576595;40;20088;-58
2021/06/22 05:52:45;;;;;;;31.13;21.63;;;;;;;19.63;91.48;100418.78;3576667;40;20060;-53
2021/06/22 05:55:16;;;;;;;35.35;22.63;;;;;;;19.26;92.35;100421.06;3576780;39;20313;-51
2021/06/22 05:57:51;;;;;;;36.22;23.73;;;;;;;19.19;93.31;100409.06;3576353;40;20061;-56
2021/06/22 06:00:24;;;;;;;36.67;24.65;;;;;;;19.52;91.48;100415.50;3579432;39;20081;-56
2021/06/22 06:02:52;;;;;;;37.70;23.17;;;;;;;19.59;91.26;100411.91;3577162;40;20057;-51
2021/06/22 06:05:20;;;;;;;35.90;22.80;;;;;;;19.53;91.72;100418.06;3576547;40;20060;-54
2021/06/22 06:07:48;;;;;;;36.70;23.23;;;;;;;19.47;91.45;100431.13;3577040;40;20398;-50
2021/06/22 06:10:16;;;;;;;33.30;21.08;;;;;;;19.71;90.96;100435.13;3578895;39;20060;-57
2021/06/22 06:12:43;;;;;;;31.80;21.85;;;;;;;19.74;89.97;100436.81;3576338;40;20079;-55
2021/06/22 06:15:11;;;;;;;31.67;21.27;;;;;;;19.68;90.63;100439.50;3577008;40;20495;-53
2021/06/22 06:17:38;;;;;;;32.22;20.50;;;;;;;19.77;89.57;100435.00;3575901;40;20093;-52
2021/06/22 06:20:08;;;;;;;27.85;19.30;;;;;;;19.88;88.69;100436.59;3577406;40;20384;-54
2021/06/22 06:22:36;;;;;;;27.77;18.98;;;;;;;19.83;89.02;100439.28;3575827;40;20055;-57
2021/06/22 06:25:07;;;;;;;28.77;18.85;;;;;;;20.03;88.47;100459.72;3577352;40;20088;-57
2021/06/22 06:30:11;;;;;;;27.15;18.23;;;;;;;19.99;88.21;100452.88;3575705;40;20446;-54
2021/06/22 06:32:38;;;;;;;25.85;18.50;;;;;;;19.98;87.95;100438.16;3574812;40;20061;-53
2021/06/22 06:35:05;;;;;;;25.05;16.50;;;;;;;20.35;86.26;100449.63;3577644;40;20565;-53
2021/06/22 06:37:32;;;;;;;30.80;19.45;;;;;;;19.82;87.85;100461.78;3576056;40;20056;-52
2021/06/22 06:40:00;;;;;;;29.20;17.55;;;;;;;19.94;87.53;100460.72;3577650;40;20139;-51
2021/06/22 06:42:27;;;;;;;26.00;15.75;;;;;;;19.93;87.42;100463.38;3575981;40;20093;-53
2021/06/22 06:44:54;;;;;;;23.80;16.08;;;;;;;20.09;87.15;100463.06;3577336;40;20384;-54
2021/06/22 06:47:22;;;;;;;24.40;15.45;;;;;;;20.14;87.55;100464.72;3575943;40;20082;-55
2021/06/22 06:49:49;;;;;;;23.63;14.95;;;;;;;19.99;88.08;100466.72;3576900;40;20418;-54
2021/06/22 06:52:16;;;;;;;22.17;14.45;;;;;;;19.96;85.91;100466.75;3575891;40;20438;-54
2021/06/22 06:54:43;;;;;;;19.38;13.95;;;;;;;19.93;86.88;100469.41;3576592;40;20089;-55
2021/06/22 06:57:10;;;;;;;18.08;13.85;;;;;;;20.17;87.10;100462.94;3578301;39;20048;-56
2021/06/22 06:59:37;;;;;;;19.13;14.15;;;;;;;20.12;85.90;100472.56;3577325;40;20092;-55
2021/06/22 07:02:05;;;;;;;20.20;13.32;;;;;;;20.19;85.52;100478.50;3578702;40;20111;-55
2021/06/22 07:04:33;;;;;;;19.73;13.45;;;;;;;20.03;85.65;100483.13;3577376;40;20089;-53
2021/06/22 07:07:00;;;;;;;19.75;11.88;;;;;;;19.96;86.40;100482.34;3579060;40;20061;-52
2021/06/22 07:09:28;;;;;;;16.08;12.23;;;;;;;20.00;85.74;100491.81;3577283;40;20068;-54
2021/06/22 07:11:56;;;;;;;13.88;10.40;;;;;;;19.92;86.78;100487.63;3578858;40;20069;-53
2021/06/22 07:14:24;;;;;;;16.73;10.63;;;;;;;19.93;86.51;100489.38;3576561;40;20100;-55
2021/06/22 07:16:51;;;;;;;14.55;10.27;;;;;;;19.86;86.23;100485.97;3578346;40;20072;-56
2021/06/22 07:19:19;;;;;;;15.02;10.20;;;;;;;19.66;85.77;100480.25;3577777;40;20049;-53
2021/06/22 07:21:47;;;;;;;11.48;8.50;;;;;;;19.77;86.96;100486.13;3579370;40;20307;-55
2021/06/22 07:24:14;;;;;;;12.27;9.23;;;;;;;19.64;86.34;100475.06;3576999;40;20084;-52
2021/06/22 07:26:42;;;;;;;13.48;9.93;;;;;;;19.46;88.41;100475.28;3577021;40;20074;-58
2021/06/22 07:29:09;;;;;;;10.70;8.43;;;;;;;19.92;86.50;100477.22;3584141;39;20096;-54
2021/06/22 07:31:36;;;;;;;13.20;10.18;;;;;;;19.98;85.04;100466.75;3577248;40;20077;-55
2021/06/22 07:34:04;;;;;;;14.75;9.73;;;;;;;19.80;85.61;100473.94;3578894;40;20435;-54
2021/06/22 07:36:31;;;;;;;14.48;10.70;;;;;;;19.76;86.10;100474.88;3577642;40;20299;-53
2021/06/22 07:38:58;;;;;;;12.95;10.25;;;;;;;19.95;84.52;100478.03;3581568;39;20061;-52
2021/06/22 07:41:26;;;;;;;12.38;10.20;;;;;;;19.68;85.56;100468.09;3576653;40;20081;-56
2021/06/22 07:43:53;;;;;;;15.98;10.57;;;;;;;19.77;85.59;100463.59;3578235;40;20063;-53
2021/06/22 07:46:20;;;;;;;17.95;11.27;;;;;;;19.89;85.61;100472.09;3576525;40;20079;-57
2021/06/22 07:48:47;;;;;;;12.38;10.43;;;;;;;20.13;84.51;100473.44;3578207;40;20057;-55
2021/06/22 07:51:14;;;;;;;13.68;10.85;;;;;;;20.14;83.36;100473.38;3577443;40;20091;-54
2021/06/22 07:53:41;;;;;;;16.05;11.10;;;;;;;19.84;84.81;100477.38;3577120;40;20044;-57
2021/06/22 07:56:08;;;;;;;12.35;10.38;;;;;;;19.64;86.12;100464.66;3578083;39;20052;-55
2021/06/22 07:58:35;;;;;;;17.20;11.50;;;;;;;19.46;86.89;100472.69;3576502;40;20427;-56
2021/06/22 08:01:02;;;;;;;13.95;10.40;;;;;;;19.74;85.35;100476.66;3578637;40;20048;-51
2021/06/22 08:03:29;;;;;;;12.85;9.35;;;;;;;19.70;85.57;100479.31;3576641;40;20325;-56
2021/06/22 08:05:56;;;;;;;11.48;10.10;;;;;;;19.52;86.32;100475.22;3578264;39;20367;-56
2021/06/22 08:08:24;;;;;;;11.27;9.23;;;;;;;20.02;85.30;100478.81;3576995;40;20175;-57
2021/06/22 08:10:53;;;;;;;14.90;10.20;;;;;;;19.96;83.67;100478.91;3577902;40;20057;-52
2021/06/22 08:13:21;;;;;;;13.48;10.35;;;;;;;19.93;83.45;100477.22;3577444;40;20480;-51
2021/06/22 08:15:48;;;;;;;17.40;9.80;;;;;;;19.84;85.37;100479.97;3577857;40;20111;-51
2021/06/22 08:18:16;;;;;;;11.95;9.30;;;;;;;19.78;85.65;100480.94;3579820;39;20070;-55
2021/06/22 08:20:44;;;;;;;13.23;10.23;;;;;;;20.11;84.97;100477.81;3577164;40;20150;-51
2021/06/22 08:23:12;;;;;;;13.05;9.98;;;;;;;20.32;83.65;100490.41;3577746;39;20072;-51
2021/06/22 08:25:39;;;;;;;15.38;9.90;;;;;;;20.15;83.73;100498.50;3576750;40;20455;-54
2021/06/22 08:28:06;;;;;;;12.80;10.00;;;;;;;19.83;84.21;100507.69;3577411;40;20092;-55
2021/06/22 08:30:34;;;;;;;11.40;9.63;;;;;;;19.96;83.79;100500.53;3577450;40;20408;-52
2021/06/22 08:33:03;;;;;;;16.83;9.65;;;;;;;19.80;84.80;100497.34;3578568;40;20409;-52
2021/06/22 08:35:36;;;;;;;12.30;9.10;;;;;;;19.88;84.50;100498.97;3576756;40;20057;-55
2021/06/22 08:38:08;;;;;;;9.45;7.97;;;;;;;19.80;84.96;100507.72;3578144;40;20060;-53
2021/06/22 08:40:42;;;;;;;16.20;8.95;;;;;;;19.96;84.69;100510.94;3576943;40;20080;-55
2021/06/22 08:43:11;;;;;;;10.30;8.40;;;;;;;19.92;83.55;100521.41;3577004;40;20461;-51
2021/06/22 08:45:40;;;;;;;9.90;7.55;;;;;;;19.79;83.43;100518.16;3576615;40;20430;-52
2021/06/22 08:48:09;;;;;;;9.35;7.40;;;;;;;19.69;84.76;100519.16;3576875;40;20325;-54
2021/06/22 08:50:38;;;;;;;8.50;6.47;;;;;;;19.96;84.66;100516.13;3576601;40;20092;-54
2021/06/22 08:53:06;;;;;;;9.95;7.78;;;;;;;20.04;84.01;100510.81;3578317;40;20320;-52
2021/06/22 08:55:33;;;;;;;7.90;7.13;;;;;;;20.18;83.20;100523.59;3576821;40;20084;-53
2021/06/22 08:58:03;;;;;;;9.48;7.10;;;;;;;20.07;83.53;100522.03;3578311;40;20060;-58
2021/06/22 09:00:34;;;;;;;10.63;7.53;;;;;;;20.17;82.60;100529.69;3577056;40;20048;-51
2021/06/22 09:03:12;;;;;;;10.35;8.20;;;;;;;20.09;82.42;100532.41;3578249;40;20401;-53
2021/06/22 09:05:40;;;;;;;10.35;8.65;;;;;;;19.82;83.19;100539.75;3576566;40;20492;-55
2021/06/22 09:08:28;;;;;;;13.90;8.52;;;;;;;19.91;83.86;100537.91;3577028;40;20071;-54
2021/06/22 09:11:07;;;;;;;10.60;9.38;;;;;;;19.69;83.71;100539.94;3578499;40;20056;-56
2021/06/22 09:13:35;;;;;;;12.13;10.15;;;;;;;19.48;84.13;100546.28;3576861;40;20090;-56
2021/06/22 09:16:03;;;;;;;10.73;9.60;;;;;;;19.46;84.89;100548.00;3578683;40;20055;-55
2021/06/22 09:18:33;;;;;;;11.55;10.27;;;;;;;19.74;82.51;100552.00;3575773;40;20793;-55
2021/06/22 09:21:04;;;;;;;13.95;10.15;;;;;;;19.86;82.44;100563.94;3578396;40;20056;-54
2021/06/22 09:23:37;;;;;;;11.38;10.07;;;;;;;19.79;82.47;100567.53;3576351;40;20574;-56
2021/06/22 09:26:22;;;;;;;10.10;9.10;;;;;;;19.83;82.62;100570.06;3578483;40;20072;-53
2021/06/22 09:28:50;;;;;;;10.93;9.90;;;;;;;19.46;83.59;100569.69;3577320;40;20569;-55
2021/06/22 09:31:20;;;;;;;11.57;9.75;;;;;;;19.78;83.09;100568.38;3575818;40;20054;-54
2021/06/22 09:33:51;;;;;;;12.32;9.55;;;;;;;19.88;81.59;100575.19;3577225;40;20134;-55
2021/06/22 09:36:21;;;;;;;10.45;9.43;;;;;;;19.56;82.13;100584.25;3579459;39;20415;-53
2021/06/22 09:38:52;;;;;;;10.35;8.90;;;;;;;19.78;81.11;100607.38;3577267;40;20061;-58
2021/06/22 09:41:26;;;;;;;11.52;8.77;;;;;;;19.44;83.49;100617.31;3579787;39;20083;-53
2021/06/22 09:44:07;;;;;;;10.05;8.55;;;;;;;19.25;85.38;100603.69;3577863;40;20065;-54
2021/06/22 09:46:47;;;;;;;8.80;7.50;;;;;;;19.62;86.22;100604.13;3576802;40;20040;-59
2021/06/22 09:49:19;;;;;;;11.00;8.98;;;;;;;19.19;86.50;100616.75;3577717;40;20041;-55
2021/06/22 09:52:12;;;;;;;11.68;9.02;;;;;;;19.28;87.86;100627.03;3576823;40;20270;-57
2021/06/22 09:54:42;;;;;;;10.77;9.10;;;;;;;19.34;88.39;100622.59;3579944;39;20060;-54
2021/06/22 09:57:09;;;;;;;15.93;8.95;;;;;;;18.96;86.76;100622.16;3576899;40;20072;-56
2021/06/22 09:59:54;;;;;;;10.20;8.15;;;;;;;19.02;86.93;100625.53;3576269;40;20084;-57
2021/06/22 10:02:23;;;;;;;9.25;6.93;;;;;;;19.21;86.27;100625.34;3579335;39;20393;-53
2021/06/22 10:04:53;;;;;;;7.93;7.13;;;;;;;19.11;86.14;100622.00;3577455;40;20081;-55
2021/06/22 10:07:23;;;;;;;10.52;7.15;;;;;;;19.16;85.85;100629.75;3576383;40;20084;-55
2021/06/22 10:09:53;;;;;;;9.40;8.00;;;;;;;19.41;84.37;100640.69;3577612;40;20068;-58
2021/06/22 10:12:22;;;;;;;8.63;7.82;;;;;;;19.46;84.12;100636.31;3576183;40;20049;-54
2021/06/22 10:14:52;;;;;;;10.23;7.78;;;;;;;19.59;84.29;100636.16;3577077;40;20041;-55
2021/06/22 10:17:21;;;;;;;7.78;6.72;;;;;;;19.82;84.96;100637.63;3576152;40;20055;-58
2021/06/22 10:19:54;;;;;;;9.65;7.65;;;;;;;19.75;82.68;100644.66;3577247;40;20124;-55
2021/06/22 10:22:24;;;;;;;7.80;7.10;;;;;;;19.56;82.83;100640.53;3579244;39;20060;-55
2021/06/22 10:24:54;;;;;;;8.38;6.53;;;;;;;19.85;82.96;100637.59;3577574;40;20841;-56
2021/06/22 10:27:22;;;;;;;7.80;6.18;;;;;;;19.97;83.01;100642.66;3576003;40;20111;-57
2021/06/22 10:29:52;;;;;;;7.18;6.55;;;;;;;20.20;80.90;100637.13;3578499;40;20089;-57
2021/06/22 10:32:23;;;;;;;8.07;7.13;;;;;;;20.19;80.17;100637.13;3577893;40;20041;-53
2021/06/22 10:34:53;;;;;;;9.82;6.90;;;;;;;20.17;80.54;100639.75;3578941;40;20069;-52
2021/06/22 10:37:30;;;;;;;9.30;6.60;;;;;;;20.38;78.34;100640.31;3577711;40;20080;-57
2021/06/22 10:40:12;;;;;;;10.18;7.22;;;;;;;20.43;78.18;100649.78;3579082;40;20080;-56
2021/06/22 10:42:53;;;;;;;8.43;6.70;;;;;;;20.31;77.91;100639.56;3577615;40;20789;-57
2021/06/22 10:45:55;;;;;;;7.50;6.65;;;;;;;20.53;76.20;100640.97;3577369;40;20049;-56
2021/06/22 10:48:22;;;;;;;6.82;6.03;;;;;;;20.63;76.83;100643.41;3577443;40;20040;-56
2021/06/22 10:50:49;;;;;;;7.55;5.72;;;;;;;20.54;76.23;100649.63;3578822;40;20072;-53
2021/06/22 10:53:16;;;;;;;7.05;6.18;;;;;;;20.48;76.60;100644.53;3578221;40;20084;-54
2021/06/22 10:55:49;;;;;;;5.78;5.28;;;;;;;20.31;80.28;100649.94;3577920;40;20117;-54
2021/06/22 10:58:17;;;;;;;7.20;5.80;;;;;;;19.71;83.08;100652.50;3580409;39;20051;-56
2021/06/22 11:00:49;;;;;;;8.65;5.85;;;;;;;19.65;82.65;100650.00;3578005;40;20053;-52
2021/06/22 11:03:21;;;;;;;6.90;5.85;;;;;;;19.59;85.90;100654.34;3580523;39;20338;-57
2021/06/22 11:06:03;;;;;;;7.13;6.05;;;;;;;19.67;86.17;100653.44;3578413;40;20352;-59
2021/06/22 11:08:33;;;;;;;8.55;5.75;;;;;;;19.51;83.55;100650.13;3577644;40;20474;-57
2021/06/22 11:11:00;;;;;;;7.95;6.13;;;;;;;19.53;84.44;100651.81;3578991;40;20100;-58
2021/06/22 11:13:45;;;;;;;7.35;5.80;;;;;;;20.17;82.40;100651.91;3577389;40;20064;-55
2021/06/22 11:16:12;;;;;;;7.60;5.15;;;;;;;20.12;82.68;100648.50;3578042;40;20072;-56
2021/06/22 11:18:55;;;;;;;6.43;5.80;;;;;;;20.03;85.24;100642.56;3577398;40;20332;-57
2021/06/22 11:21:32;;;;;;;8.32;7.45;;;;;;;20.37;79.78;100646.41;3577431;40;20044;-57
2021/06/22 11:24:31;;;;;;;6.85;6.25;;;;;;;20.27;80.89;100651.72;3578967;40;20096;-58